sensor_id;sensor_type;location;lat;lon;timestamp;P1;durP1;ratioP1;P2;durP2;ratioP2
27847;SDS011;15212;48.830;8.730;2023-06-26T00:00:01;12.88;;;7.40;;
27847;SDS011;15212;48.830;8.730;2023-06-26T00:02:31;11.30;;;7.00;;
27847;SDS011;15212;48.830;8.730;2023-06-26T00:04:59;12.82;;;7.12;;
27847;SDS011;15212;48.830;8.730;2023-06-26T00:07:29;10.68;;;7.10;;
27847;SDS011;15212;48.830;8.730;2023-06-26T00:10:00;14.60;;;7.15;;
27847;SDS011;15212;48.830;8.730;2023-06-26T00:12:30;13.05;;;6.80;;
27847;SDS011;15212;48.830;8.730;2023-06-26T00:14:59;10.95;;;7.20;;
27847;SDS011;15212;48.830;8.730;2023-06-26T00:17:27;11.60;;;7.30;;
27847;SDS011;15212;48.830;8.730;2023-06-26T00:19:56;10.32;;;6.47;;
27847;SDS011;15212;48.830;8.730;2023-06-26T00:22:24;10.43;;;6.83;;
27847;SDS011;15212;48.830;8.730;2023-06-26T00:24:53;12.20;;;7.00;;
27847;SDS011;15212;48.830;8.730;2023-06-26T00:27:21;9.35;;;6.62;;
27847;SDS011;15212;48.830;8.730;2023-06-26T00:29:49;10.10;;;6.58;;
27847;SDS011;15212;48.830;8.730;2023-06-26T00:32:18;10.88;;;7.00;;
27847;SDS011;15212;48.830;8.730;2023-06-26T00:34:47;10.45;;;6.85;;
27847;SDS011;15212;48.830;8.730;2023-06-26T00:37:15;10.82;;;7.10;;
27847;SDS011;15212;48.830;8.730;2023-06-26T00:39:43;9.90;;;6.62;;
27847;SDS011;15212;48.830;8.730;2023-06-26T00:42:12;10.50;;;6.92;;
27847;SDS011;15212;48.830;8.730;2023-06-26T00:44:40;11.45;;;7.30;;
27847;SDS011;15212;48.830;8.730;2023-06-26T00:47:09;12.30;;;7.05;;
27847;SDS011;15212;48.830;8.730;2023-06-26T00:49:41;11.10;;;7.00;;
27847;SDS011;15212;48.830;8.730;2023-06-26T00:52:09;10.48;;;7.10;;
27847;SDS011;15212;48.830;8.730;2023-06-26T00:54:38;12.03;;;7.47;;
27847;SDS011;15212;48.830;8.730;2023-06-26T00:57:07;12.13;;;7.00;;
27847;SDS011;15212;48.830;8.730;2023-06-26T00:59:35;11.90;;;7.25;;
27847;SDS011;15212;48.830;8.730;2023-06-26T01:02:04;9.58;;;6.85;;
27847;SDS011;15212;48.830;8.730;2023-06-26T01:04:33;10.15;;;6.87;;
27847;SDS011;15212;48.830;8.730;2023-06-26T01:07:02;11.70;;;7.17;;
27847;SDS011;15212;48.830;8.730;2023-06-26T01:09:33;11.95;;;7.15;;
27847;SDS011;15212;48.830;8.730;2023-06-26T01:12:02;11.20;;;7.15;;
27847;SDS011;15212;48.830;8.730;2023-06-26T01:14:30;10.18;;;7.10;;
27847;SDS011;15212;48.830;8.730;2023-06-26T01:17:01;11.00;;;6.90;;
27847;SDS011;15212;48.830;8.730;2023-06-26T01:19:30;10.70;;;7.05;;
27847;SDS011;15212;48.830;8.730;2023-06-26T01:25:12;10.80;;;7.00;;
27847;SDS011;15212;48.830;8.730;2023-06-26T01:28:07;10.38;;;7.03;;
27847;SDS011;15212;48.830;8.730;2023-06-26T01:30:39;10.10;;;6.95;;
27847;SDS011;15212;48.830;8.730;2023-06-26T01:33:09;10.43;;;6.55;;
27847;SDS011;15212;48.830;8.730;2023-06-26T01:35:40;9.25;;;6.50;;
27847;SDS011;15212;48.830;8.730;2023-06-26T01:38:18;10.70;;;6.92;;
27847;SDS011;15212;48.830;8.730;2023-06-26T01:40:49;10.58;;;6.53;;
27847;SDS011;15212;48.830;8.730;2023-06-26T01:46:25;10.65;;;6.97;;
27847;SDS011;15212;48.830;8.730;2023-06-26T01:49:15;9.63;;;6.50;;
27847;SDS011;15212;48.830;8.730;2023-06-26T01:54:52;10.40;;;6.80;;
27847;SDS011;15212;48.830;8.730;2023-06-26T01:57:30;9.55;;;6.62;;
27847;SDS011;15212;48.830;8.730;2023-06-26T01:59:59;7.75;;;5.30;;
27847;SDS011;15212;48.830;8.730;2023-06-26T02:02:29;9.53;;;6.42;;
27847;SDS011;15212;48.830;8.730;2023-06-26T02:04:57;9.68;;;6.42;;
27847;SDS011;15212;48.830;8.730;2023-06-26T02:07:26;10.65;;;6.47;;
27847;SDS011;15212;48.830;8.730;2023-06-26T02:09:54;9.90;;;6.17;;
27847;SDS011;15212;48.830;8.730;2023-06-26T02:12:23;10.35;;;6.40;;
27847;SDS011;15212;48.830;8.730;2023-06-26T02:14:51;10.35;;;6.35;;
27847;SDS011;15212;48.830;8.730;2023-06-26T02:17:19;9.73;;;6.37;;
27847;SDS011;15212;48.830;8.730;2023-06-26T02:19:48;10.55;;;6.60;;
27847;SDS011;15212;48.830;8.730;2023-06-26T02:22:16;9.28;;;5.97;;
27847;SDS011;15212;48.830;8.730;2023-06-26T02:24:45;10.13;;;6.67;;
27847;SDS011;15212;48.830;8.730;2023-06-26T02:27:13;8.43;;;5.97;;
27847;SDS011;15212;48.830;8.730;2023-06-26T02:29:42;8.70;;;5.62;;
27847;SDS011;15212;48.830;8.730;2023-06-26T02:32:10;8.93;;;5.97;;
27847;SDS011;15212;48.830;8.730;2023-06-26T02:34:39;8.85;;;5.95;;
27847;SDS011;15212;48.830;8.730;2023-06-26T02:37:07;10.08;;;6.20;;
27847;SDS011;15212;48.830;8.730;2023-06-26T02:39:36;9.40;;;6.50;;
27847;SDS011;15212;48.830;8.730;2023-06-26T02:42:04;9.15;;;6.28;;
27847;SDS011;15212;48.830;8.730;2023-06-26T02:44:33;8.45;;;5.80;;
27847;SDS011;15212;48.830;8.730;2023-06-26T02:47:01;8.93;;;6.20;;
27847;SDS011;15212;48.830;8.730;2023-06-26T02:49:30;11.08;;;6.08;;
27847;SDS011;15212;48.830;8.730;2023-06-26T02:51:58;9.25;;;5.87;;
27847;SDS011;15212;48.830;8.730;2023-06-26T02:54:26;9.40;;;6.33;;
27847;SDS011;15212;48.830;8.730;2023-06-26T02:56:55;9.43;;;6.15;;
27847;SDS011;15212;48.830;8.730;2023-06-26T02:59:23;8.93;;;6.10;;
27847;SDS011;15212;48.830;8.730;2023-06-26T03:01:52;9.23;;;6.47;;
27847;SDS011;15212;48.830;8.730;2023-06-26T03:04:20;10.48;;;6.42;;
27847;SDS011;15212;48.830;8.730;2023-06-26T03:06:49;10.30;;;6.45;;
27847;SDS011;15212;48.830;8.730;2023-06-26T03:09:17;9.85;;;6.25;;
27847;SDS011;15212;48.830;8.730;2023-06-26T03:11:45;10.45;;;6.25;;
27847;SDS011;15212;48.830;8.730;2023-06-26T03:14:14;10.18;;;5.85;;
27847;SDS011;15212;48.830;8.730;2023-06-26T03:16:42;9.18;;;6.33;;
27847;SDS011;15212;48.830;8.730;2023-06-26T03:19:11;9.98;;;6.45;;
27847;SDS011;15212;48.830;8.730;2023-06-26T03:21:39;9.25;;;5.85;;
27847;SDS011;15212;48.830;8.730;2023-06-26T03:24:07;10.80;;;6.03;;
27847;SDS011;15212;48.830;8.730;2023-06-26T03:26:36;9.15;;;6.30;;
27847;SDS011;15212;48.830;8.730;2023-06-26T03:29:04;10.75;;;6.33;;
27847;SDS011;15212;48.830;8.730;2023-06-26T03:31:33;9.90;;;6.33;;
27847;SDS011;15212;48.830;8.730;2023-06-26T03:34:01;9.68;;;6.40;;
27847;SDS011;15212;48.830;8.730;2023-06-26T03:36:29;8.68;;;6.00;;
27847;SDS011;15212;48.830;8.730;2023-06-26T03:38:58;8.48;;;5.80;;
27847;SDS011;15212;48.830;8.730;2023-06-26T03:41:26;7.40;;;5.20;;
27847;SDS011;15212;48.830;8.730;2023-06-26T03:43:55;9.63;;;6.03;;
27847;SDS011;15212;48.830;8.730;2023-06-26T03:46:23;8.53;;;5.72;;
27847;SDS011;15212;48.830;8.730;2023-06-26T03:48:52;8.95;;;5.90;;
27847;SDS011;15212;48.830;8.730;2023-06-26T03:51:20;8.68;;;5.47;;
27847;SDS011;15212;48.830;8.730;2023-06-26T03:53:48;8.08;;;5.50;;
27847;SDS011;15212;48.830;8.730;2023-06-26T03:56:17;9.83;;;5.67;;
27847;SDS011;15212;48.830;8.730;2023-06-26T03:58:45;8.98;;;5.72;;
27847;SDS011;15212;48.830;8.730;2023-06-26T04:01:13;7.70;;;5.22;;
27847;SDS011;15212;48.830;8.730;2023-06-26T04:03:42;8.25;;;5.75;;
27847;SDS011;15212;48.830;8.730;2023-06-26T04:06:10;8.13;;;5.28;;
27847;SDS011;15212;48.830;8.730;2023-06-26T04:08:39;9.73;;;5.58;;
27847;SDS011;15212;48.830;8.730;2023-06-26T04:11:07;7.67;;;5.17;;
27847;SDS011;15212;48.830;8.730;2023-06-26T04:13:36;9.75;;;5.37;;
27847;SDS011;15212;48.830;8.730;2023-06-26T04:16:04;8.08;;;5.20;;
27847;SDS011;15212;48.830;8.730;2023-06-26T04:18:33;8.98;;;6.03;;
27847;SDS011;15212;48.830;8.730;2023-06-26T04:21:06;6.92;;;4.95;;
27847;SDS011;15212;48.830;8.730;2023-06-26T04:23:37;8.00;;;5.72;;
27847;SDS011;15212;48.830;8.730;2023-06-26T04:26:07;8.60;;;5.22;;
27847;SDS011;15212;48.830;8.730;2023-06-26T04:28:37;8.75;;;5.20;;
27847;SDS011;15212;48.830;8.730;2023-06-26T04:31:06;7.37;;;5.12;;
27847;SDS011;15212;48.830;8.730;2023-06-26T04:33:35;8.03;;;5.53;;
27847;SDS011;15212;48.830;8.730;2023-06-26T04:36:04;7.97;;;5.35;;
27847;SDS011;15212;48.830;8.730;2023-06-26T04:38:33;7.53;;;4.90;;
27847;SDS011;15212;48.830;8.730;2023-06-26T04:41:01;8.38;;;5.28;;
27847;SDS011;15212;48.830;8.730;2023-06-26T04:43:30;8.18;;;5.55;;
27847;SDS011;15212;48.830;8.730;2023-06-26T04:45:58;8.75;;;5.47;;
27847;SDS011;15212;48.830;8.730;2023-06-26T04:48:26;7.40;;;4.92;;
27847;SDS011;15212;48.830;8.730;2023-06-26T04:50:56;7.45;;;4.95;;
27847;SDS011;15212;48.830;8.730;2023-06-26T04:53:25;8.78;;;5.25;;
27847;SDS011;15212;48.830;8.730;2023-06-26T04:55:53;6.67;;;5.03;;
27847;SDS011;15212;48.830;8.730;2023-06-26T04:58:22;7.50;;;4.92;;
27847;SDS011;15212;48.830;8.730;2023-06-26T05:00:50;8.28;;;5.28;;
27847;SDS011;15212;48.830;8.730;2023-06-26T05:03:18;7.03;;;5.45;;
27847;SDS011;15212;48.830;8.730;2023-06-26T05:05:48;7.22;;;4.95;;
27847;SDS011;15212;48.830;8.730;2023-06-26T05:08:20;7.90;;;5.00;;
27847;SDS011;15212;48.830;8.730;2023-06-26T05:10:50;7.12;;;5.30;;
27847;SDS011;15212;48.830;8.730;2023-06-26T05:13:19;8.48;;;5.22;;
27847;SDS011;15212;48.830;8.730;2023-06-26T05:15:48;7.22;;;5.05;;
27847;SDS011;15212;48.830;8.730;2023-06-26T05:18:16;8.50;;;4.95;;
27847;SDS011;15212;48.830;8.730;2023-06-26T05:20:45;8.85;;;5.83;;
27847;SDS011;15212;48.830;8.730;2023-06-26T05:23:14;7.58;;;5.10;;
27847;SDS011;15212;48.830;8.730;2023-06-26T05:25:44;10.40;;;5.10;;
27847;SDS011;15212;48.830;8.730;2023-06-26T05:28:13;7.30;;;5.10;;
27847;SDS011;15212;48.830;8.730;2023-06-26T05:30:42;8.55;;;5.40;;
27847;SDS011;15212;48.830;8.730;2023-06-26T05:33:11;7.72;;;4.87;;
27847;SDS011;15212;48.830;8.730;2023-06-26T05:35:41;7.83;;;5.00;;
27847;SDS011;15212;48.830;8.730;2023-06-26T05:38:13;7.40;;;5.10;;
27847;SDS011;15212;48.830;8.730;2023-06-26T05:40:41;10.98;;;5.10;;
27847;SDS011;15212;48.830;8.730;2023-06-26T05:43:10;9.18;;;5.20;;
27847;SDS011;15212;48.830;8.730;2023-06-26T05:45:39;9.75;;;5.70;;
27847;SDS011;15212;48.830;8.730;2023-06-26T05:48:08;8.28;;;5.00;;
27847;SDS011;15212;48.830;8.730;2023-06-26T05:50:36;5.90;;;4.78;;
27847;SDS011;15212;48.830;8.730;2023-06-26T05:53:07;8.45;;;5.60;;
27847;SDS011;15212;48.830;8.730;2023-06-26T05:55:35;7.03;;;5.10;;
27847;SDS011;15212;48.830;8.730;2023-06-26T05:58:06;7.78;;;5.42;;
27847;SDS011;15212;48.830;8.730;2023-06-26T06:00:38;7.65;;;4.72;;
27847;SDS011;15212;48.830;8.730;2023-06-26T06:03:09;6.35;;;4.72;;
27847;SDS011;15212;48.830;8.730;2023-06-26T06:05:37;7.33;;;4.37;;
27847;SDS011;15212;48.830;8.730;2023-06-26T06:08:06;5.78;;;4.22;;
27847;SDS011;15212;48.830;8.730;2023-06-26T06:10:34;5.30;;;4.03;;
27847;SDS011;15212;48.830;8.730;2023-06-26T06:13:02;6.70;;;4.10;;
27847;SDS011;15212;48.830;8.730;2023-06-26T06:15:31;6.78;;;4.12;;
27847;SDS011;15212;48.830;8.730;2023-06-26T06:17:59;6.05;;;4.03;;
27847;SDS011;15212;48.830;8.730;2023-06-26T06:20:27;6.95;;;3.83;;
27847;SDS011;15212;48.830;8.730;2023-06-26T06:22:56;5.05;;;3.98;;
27847;SDS011;15212;48.830;8.730;2023-06-26T06:25:24;5.05;;;3.87;;
27847;SDS011;15212;48.830;8.730;2023-06-26T06:27:53;4.40;;;3.65;;
27847;SDS011;15212;48.830;8.730;2023-06-26T06:30:21;4.03;;;3.47;;
27847;SDS011;15212;48.830;8.730;2023-06-26T06:32:49;5.12;;;4.05;;
27847;SDS011;15212;48.830;8.730;2023-06-26T06:35:18;6.75;;;3.47;;
27847;SDS011;15212;48.830;8.730;2023-06-26T06:37:47;5.62;;;3.47;;
27847;SDS011;15212;48.830;8.730;2023-06-26T06:40:15;3.83;;;3.37;;
27847;SDS011;15212;48.830;8.730;2023-06-26T06:42:43;4.03;;;3.62;;
27847;SDS011;15212;48.830;8.730;2023-06-26T06:45:12;5.35;;;3.87;;
27847;SDS011;15212;48.830;8.730;2023-06-26T06:47:40;4.70;;;3.35;;
27847;SDS011;15212;48.830;8.730;2023-06-26T06:50:09;4.45;;;3.72;;
27847;SDS011;15212;48.830;8.730;2023-06-26T06:52:37;6.97;;;4.00;;
27847;SDS011;15212;48.830;8.730;2023-06-26T06:55:07;4.47;;;3.75;;
27847;SDS011;15212;48.830;8.730;2023-06-26T06:57:36;5.65;;;3.58;;
27847;SDS011;15212;48.830;8.730;2023-06-26T07:02:38;4.92;;;3.58;;
27847;SDS011;15212;48.830;8.730;2023-06-26T07:05:08;4.97;;;3.77;;
27847;SDS011;15212;48.830;8.730;2023-06-26T07:07:38;3.77;;;3.37;;
27847;SDS011;15212;48.830;8.730;2023-06-26T07:10:07;3.98;;;3.58;;
27847;SDS011;15212;48.830;8.730;2023-06-26T07:12:38;6.10;;;3.67;;
27847;SDS011;15212;48.830;8.730;2023-06-26T07:15:07;4.47;;;3.47;;
27847;SDS011;15212;48.830;8.730;2023-06-26T07:17:35;4.70;;;3.70;;
27847;SDS011;15212;48.830;8.730;2023-06-26T07:20:05;4.37;;;3.70;;
27847;SDS011;15212;48.830;8.730;2023-06-26T07:22:36;4.95;;;3.65;;
27847;SDS011;15212;48.830;8.730;2023-06-26T07:25:04;4.35;;;3.67;;
27847;SDS011;15212;48.830;8.730;2023-06-26T07:27:37;5.37;;;3.75;;
27847;SDS011;15212;48.830;8.730;2023-06-26T07:30:06;4.90;;;3.45;;
27847;SDS011;15212;48.830;8.730;2023-06-26T07:32:35;3.75;;;3.37;;
27847;SDS011;15212;48.830;8.730;2023-06-26T07:35:05;4.92;;;3.72;;
27847;SDS011;15212;48.830;8.730;2023-06-26T07:37:34;4.92;;;4.00;;
27847;SDS011;15212;48.830;8.730;2023-06-26T07:40:02;5.40;;;3.65;;
27847;SDS011;15212;48.830;8.730;2023-06-26T07:42:32;6.30;;;4.00;;
27847;SDS011;15212;48.830;8.730;2023-06-26T07:45:00;4.25;;;3.80;;
27847;SDS011;15212;48.830;8.730;2023-06-26T07:47:30;3.90;;;3.50;;
27847;SDS011;15212;48.830;8.730;2023-06-26T07:49:59;4.80;;;4.08;;
27847;SDS011;15212;48.830;8.730;2023-06-26T07:52:27;6.05;;;3.90;;
27847;SDS011;15212;48.830;8.730;2023-06-26T07:54:56;4.40;;;3.77;;
27847;SDS011;15212;48.830;8.730;2023-06-26T07:57:25;4.65;;;3.80;;
27847;SDS011;15212;48.830;8.730;2023-06-26T07:59:53;4.60;;;3.80;;
27847;SDS011;15212;48.830;8.730;2023-06-26T08:02:21;6.12;;;3.75;;
27847;SDS011;15212;48.830;8.730;2023-06-26T08:04:50;4.90;;;4.03;;
27847;SDS011;15212;48.830;8.730;2023-06-26T08:07:18;6.37;;;3.98;;
27847;SDS011;15212;48.830;8.730;2023-06-26T08:09:46;4.95;;;4.10;;
27847;SDS011;15212;48.830;8.730;2023-06-26T08:12:15;6.97;;;4.10;;
27847;SDS011;15212;48.830;8.730;2023-06-26T08:14:43;6.05;;;4.25;;
27847;SDS011;15212;48.830;8.730;2023-06-26T08:17:12;6.28;;;4.37;;
27847;SDS011;15212;48.830;8.730;2023-06-26T08:19:40;5.55;;;4.25;;
27847;SDS011;15212;48.830;8.730;2023-06-26T08:22:09;5.75;;;4.35;;
27847;SDS011;15212;48.830;8.730;2023-06-26T08:24:37;5.60;;;4.45;;
27847;SDS011;15212;48.830;8.730;2023-06-26T08:27:05;5.45;;;4.10;;
27847;SDS011;15212;48.830;8.730;2023-06-26T08:29:34;6.33;;;4.62;;
27847;SDS011;15212;48.830;8.730;2023-06-26T08:32:02;7.33;;;4.72;;
27847;SDS011;15212;48.830;8.730;2023-06-26T08:34:31;5.85;;;4.42;;
27847;SDS011;15212;48.830;8.730;2023-06-26T08:37:00;5.72;;;4.50;;
27847;SDS011;15212;48.830;8.730;2023-06-26T08:39:28;7.95;;;4.17;;
27847;SDS011;15212;48.830;8.730;2023-06-26T08:41:56;6.03;;;4.72;;
27847;SDS011;15212;48.830;8.730;2023-06-26T08:44:25;6.65;;;4.17;;
27847;SDS011;15212;48.830;8.730;2023-06-26T08:46:53;10.13;;;4.28;;
27847;SDS011;15212;48.830;8.730;2023-06-26T08:49:25;6.17;;;4.20;;
27847;SDS011;15212;48.830;8.730;2023-06-26T08:52:13;6.53;;;4.90;;
27847;SDS011;15212;48.830;8.730;2023-06-26T08:54:58;6.65;;;5.08;;
27847;SDS011;15212;48.830;8.730;2023-06-26T08:57:29;6.15;;;4.50;;
27847;SDS011;15212;48.830;8.730;2023-06-26T08:59:59;6.00;;;4.47;;
27847;SDS011;15212;48.830;8.730;2023-06-26T09:02:28;6.85;;;4.85;;
27847;SDS011;15212;48.830;8.730;2023-06-26T09:04:56;6.53;;;4.75;;
27847;SDS011;15212;48.830;8.730;2023-06-26T09:07:25;7.37;;;4.80;;
27847;SDS011;15212;48.830;8.730;2023-06-26T09:09:53;6.78;;;4.80;;
27847;SDS011;15212;48.830;8.730;2023-06-26T09:12:22;7.47;;;4.58;;
27847;SDS011;15212;48.830;8.730;2023-06-26T09:14:50;7.47;;;5.08;;
27847;SDS011;15212;48.830;8.730;2023-06-26T09:17:24;7.50;;;5.05;;
27847;SDS011;15212;48.830;8.730;2023-06-26T09:19:58;7.85;;;4.85;;
27847;SDS011;15212;48.830;8.730;2023-06-26T09:22:26;6.65;;;5.22;;
27847;SDS011;15212;48.830;8.730;2023-06-26T09:24:55;6.78;;;5.08;;
27847;SDS011;15212;48.830;8.730;2023-06-26T09:27:23;9.95;;;5.37;;
27847;SDS011;15212;48.830;8.730;2023-06-26T09:29:52;7.47;;;5.58;;
27847;SDS011;15212;48.830;8.730;2023-06-26T09:32:23;8.93;;;5.95;;
27847;SDS011;15212;48.830;8.730;2023-06-26T09:34:53;7.55;;;5.72;;
27847;SDS011;15212;48.830;8.730;2023-06-26T09:37:22;9.53;;;5.92;;
27847;SDS011;15212;48.830;8.730;2023-06-26T09:39:50;7.25;;;5.72;;
27847;SDS011;15212;48.830;8.730;2023-06-26T09:42:19;9.40;;;6.00;;
27847;SDS011;15212;48.830;8.730;2023-06-26T09:44:47;6.60;;;5.58;;
27847;SDS011;15212;48.830;8.730;2023-06-26T09:47:18;8.98;;;6.00;;
27847;SDS011;15212;48.830;8.730;2023-06-26T09:49:46;9.70;;;5.92;;
27847;SDS011;15212;48.830;8.730;2023-06-26T09:52:16;8.88;;;6.08;;
27847;SDS011;15212;48.830;8.730;2023-06-26T09:54:46;10.00;;;5.95;;
27847;SDS011;15212;48.830;8.730;2023-06-26T09:57:16;8.45;;;6.28;;
27847;SDS011;15212;48.830;8.730;2023-06-26T09:59:45;10.90;;;6.40;;
27847;SDS011;15212;48.830;8.730;2023-06-26T10:02:13;9.30;;;6.20;;
27847;SDS011;15212;48.830;8.730;2023-06-26T10:04:42;9.50;;;6.15;;
27847;SDS011;15212;48.830;8.730;2023-06-26T10:07:11;9.23;;;6.40;;
27847;SDS011;15212;48.830;8.730;2023-06-26T10:09:41;10.75;;;6.12;;
27847;SDS011;15212;48.830;8.730;2023-06-26T10:14:47;10.32;;;5.83;;
27847;SDS011;15212;48.830;8.730;2023-06-26T10:17:19;9.53;;;6.00;;
27847;SDS011;15212;48.830;8.730;2023-06-26T10:19:48;8.63;;;6.55;;
27847;SDS011;15212;48.830;8.730;2023-06-26T10:22:20;10.82;;;6.17;;
27847;SDS011;15212;48.830;8.730;2023-06-26T10:24:49;9.08;;;6.40;;
27847;SDS011;15212;48.830;8.730;2023-06-26T10:27:24;9.28;;;5.87;;
27847;SDS011;15212;48.830;8.730;2023-06-26T10:29:55;9.73;;;6.25;;
27847;SDS011;15212;48.830;8.730;2023-06-26T10:32:27;8.45;;;6.17;;
27847;SDS011;15212;48.830;8.730;2023-06-26T10:34:57;7.10;;;5.83;;
27847;SDS011;15212;48.830;8.730;2023-06-26T10:37:40;9.43;;;6.45;;
27847;SDS011;15212;48.830;8.730;2023-06-26T10:40:20;8.63;;;5.85;;
27847;SDS011;15212;48.830;8.730;2023-06-26T10:43:07;11.18;;;5.92;;
27847;SDS011;15212;48.830;8.730;2023-06-26T10:45:38;8.05;;;6.17;;
27847;SDS011;15212;48.830;8.730;2023-06-26T10:48:15;9.60;;;5.70;;
27847;SDS011;15212;48.830;8.730;2023-06-26T10:50:47;8.93;;;6.00;;
27847;SDS011;15212;48.830;8.730;2023-06-26T10:55:56;7.95;;;5.97;;
27847;SDS011;15212;48.830;8.730;2023-06-26T11:03:49;7.95;;;5.60;;
27847;SDS011;15212;48.830;8.730;2023-06-26T11:06:28;8.08;;;5.90;;
27847;SDS011;15212;48.830;8.730;2023-06-26T11:14:27;8.45;;;5.83;;
27847;SDS011;15212;48.830;8.730;2023-06-26T11:16:58;7.00;;;5.55;;
27847;SDS011;15212;48.830;8.730;2023-06-26T11:19:31;9.15;;;5.45;;
27847;SDS011;15212;48.830;8.730;2023-06-26T11:22:01;8.45;;;6.08;;
27847;SDS011;15212;48.830;8.730;2023-06-26T11:24:30;9.78;;;5.85;;
27847;SDS011;15212;48.830;8.730;2023-06-26T11:27:00;7.62;;;5.53;;
27847;SDS011;15212;48.830;8.730;2023-06-26T11:29:30;8.90;;;5.67;;
27847;SDS011;15212;48.830;8.730;2023-06-26T11:31:59;9.33;;;6.12;;
27847;SDS011;15212;48.830;8.730;2023-06-26T11:34:31;9.20;;;5.90;;
27847;SDS011;15212;48.830;8.730;2023-06-26T11:37:00;9.18;;;6.00;;
27847;SDS011;15212;48.830;8.730;2023-06-26T11:39:30;12.25;;;6.20;;
27847;SDS011;15212;48.830;8.730;2023-06-26T11:41:59;7.85;;;5.85;;
27847;SDS011;15212;48.830;8.730;2023-06-26T11:44:31;10.10;;;6.22;;
27847;SDS011;15212;48.830;8.730;2023-06-26T11:47:03;10.15;;;6.42;;
27847;SDS011;15212;48.830;8.730;2023-06-26T11:49:31;12.68;;;6.25;;
27847;SDS011;15212;48.830;8.730;2023-06-26T11:52:02;9.55;;;5.78;;
27847;SDS011;15212;48.830;8.730;2023-06-26T11:54:30;7.58;;;5.50;;
27847;SDS011;15212;48.830;8.730;2023-06-26T11:56:59;8.68;;;5.30;;
27847;SDS011;15212;48.830;8.730;2023-06-26T11:59:37;7.08;;;5.30;;
27847;SDS011;15212;48.830;8.730;2023-06-26T12:02:10;13.60;;;5.83;;
27847;SDS011;15212;48.830;8.730;2023-06-26T12:04:37;7.58;;;5.30;;
27847;SDS011;15212;48.830;8.730;2023-06-26T12:07:08;7.45;;;5.60;;
27847;SDS011;15212;48.830;8.730;2023-06-26T12:09:44;10.00;;;6.00;;
27847;SDS011;15212;48.830;8.730;2023-06-26T12:12:14;7.17;;;5.25;;
27847;SDS011;15212;48.830;8.730;2023-06-26T12:14:45;8.85;;;5.15;;
27847;SDS011;15212;48.830;8.730;2023-06-26T12:17:13;9.30;;;5.53;;
27847;SDS011;15212;48.830;8.730;2023-06-26T12:19:45;7.03;;;5.08;;
27847;SDS011;15212;48.830;8.730;2023-06-26T12:22:15;7.53;;;5.10;;
27847;SDS011;15212;48.830;8.730;2023-06-26T12:24:45;11.43;;;5.00;;
27847;SDS011;15212;48.830;8.730;2023-06-26T12:27:15;8.08;;;4.90;;
27847;SDS011;15212;48.830;8.730;2023-06-26T12:29:47;6.37;;;5.10;;
27847;SDS011;15212;48.830;8.730;2023-06-26T12:32:19;9.33;;;5.33;;
27847;SDS011;15212;48.830;8.730;2023-06-26T12:34:51;9.35;;;5.10;;
27847;SDS011;15212;48.830;8.730;2023-06-26T12:37:20;6.62;;;4.58;;
27847;SDS011;15212;48.830;8.730;2023-06-26T12:42:27;8.00;;;4.20;;
27847;SDS011;15212;48.830;8.730;2023-06-26T12:44:57;9.28;;;5.03;;
27847;SDS011;15212;48.830;8.730;2023-06-26T12:47:26;8.00;;;4.95;;
27847;SDS011;15212;48.830;8.730;2023-06-26T12:49:57;8.25;;;4.35;;
27847;SDS011;15212;48.830;8.730;2023-06-26T12:52:25;6.62;;;4.45;;
27847;SDS011;15212;48.830;8.730;2023-06-26T12:54:54;6.87;;;4.25;;
27847;SDS011;15212;48.830;8.730;2023-06-26T12:57:23;7.03;;;4.30;;
27847;SDS011;15212;48.830;8.730;2023-06-26T12:59:52;9.48;;;4.50;;
27847;SDS011;15212;48.830;8.730;2023-06-26T13:02:20;7.37;;;4.45;;
27847;SDS011;15212;48.830;8.730;2023-06-26T13:04:49;6.80;;;4.33;;
27847;SDS011;15212;48.830;8.730;2023-06-26T13:07:17;6.75;;;3.98;;
27847;SDS011;15212;48.830;8.730;2023-06-26T13:09:45;6.10;;;4.08;;
27847;SDS011;15212;48.830;8.730;2023-06-26T13:12:14;5.72;;;3.98;;
27847;SDS011;15212;48.830;8.730;2023-06-26T13:14:43;5.90;;;3.72;;
27847;SDS011;15212;48.830;8.730;2023-06-26T13:17:11;6.00;;;3.90;;
27847;SDS011;15212;48.830;8.730;2023-06-26T13:19:39;7.70;;;3.83;;
27847;SDS011;15212;48.830;8.730;2023-06-26T13:22:09;5.25;;;3.42;;
27847;SDS011;15212;48.830;8.730;2023-06-26T13:24:37;6.60;;;3.80;;
27847;SDS011;15212;48.830;8.730;2023-06-26T13:27:07;5.92;;;3.77;;
27847;SDS011;15212;48.830;8.730;2023-06-26T13:29:35;6.97;;;3.85;;
27847;SDS011;15212;48.830;8.730;2023-06-26T13:32:03;6.22;;;3.72;;
27847;SDS011;15212;48.830;8.730;2023-06-26T13:34:32;9.68;;;3.90;;
27847;SDS011;15212;48.830;8.730;2023-06-26T13:37:01;9.50;;;3.75;;
27847;SDS011;15212;48.830;8.730;2023-06-26T13:39:29;4.87;;;3.72;;
27847;SDS011;15212;48.830;8.730;2023-06-26T13:41:58;5.28;;;3.30;;
27847;SDS011;15212;48.830;8.730;2023-06-26T13:44:26;8.83;;;3.65;;
27847;SDS011;15212;48.830;8.730;2023-06-26T13:46:54;6.37;;;3.55;;
27847;SDS011;15212;48.830;8.730;2023-06-26T13:49:23;4.95;;;3.00;;
27847;SDS011;15212;48.830;8.730;2023-06-26T13:51:51;5.12;;;3.42;;
27847;SDS011;15212;48.830;8.730;2023-06-26T13:54:20;7.62;;;3.62;;
27847;SDS011;15212;48.830;8.730;2023-06-26T13:56:48;5.80;;;3.50;;
27847;SDS011;15212;48.830;8.730;2023-06-26T13:59:16;7.60;;;3.37;;
27847;SDS011;15212;48.830;8.730;2023-06-26T14:01:45;5.00;;;3.40;;
27847;SDS011;15212;48.830;8.730;2023-06-26T14:04:13;6.60;;;3.30;;
27847;SDS011;15212;48.830;8.730;2023-06-26T14:06:41;9.15;;;3.77;;
27847;SDS011;15212;48.830;8.730;2023-06-26T14:09:11;7.12;;;3.30;;
27847;SDS011;15212;48.830;8.730;2023-06-26T14:11:39;8.05;;;3.27;;
27847;SDS011;15212;48.830;8.730;2023-06-26T14:14:07;6.97;;;3.42;;
27847;SDS011;15212;48.830;8.730;2023-06-26T14:16:36;5.50;;;3.42;;
27847;SDS011;15212;48.830;8.730;2023-06-26T14:19:06;6.70;;;3.40;;
27847;SDS011;15212;48.830;8.730;2023-06-26T14:21:36;6.75;;;3.75;;
27847;SDS011;15212;48.830;8.730;2023-06-26T14:24:04;9.08;;;4.15;;
27847;SDS011;15212;48.830;8.730;2023-06-26T14:26:32;6.60;;;4.20;;
27847;SDS011;15212;48.830;8.730;2023-06-26T14:29:02;7.33;;;4.10;;
27847;SDS011;15212;48.830;8.730;2023-06-26T14:31:31;9.35;;;4.72;;
27847;SDS011;15212;48.830;8.730;2023-06-26T14:33:59;7.12;;;4.67;;
27847;SDS011;15212;48.830;8.730;2023-06-26T14:36:28;7.85;;;4.85;;
27847;SDS011;15212;48.830;8.730;2023-06-26T14:38:57;7.45;;;5.00;;
27847;SDS011;15212;48.830;8.730;2023-06-26T14:41:26;8.28;;;4.47;;
27847;SDS011;15212;48.830;8.730;2023-06-26T14:43:54;8.10;;;4.53;;
27847;SDS011;15212;48.830;8.730;2023-06-26T14:46:23;9.93;;;5.62;;
27847;SDS011;15212;48.830;8.730;2023-06-26T14:48:51;7.17;;;4.85;;
27847;SDS011;15212;48.830;8.730;2023-06-26T14:51:21;8.58;;;5.17;;
27847;SDS011;15212;48.830;8.730;2023-06-26T14:53:51;9.68;;;5.53;;
27847;SDS011;15212;48.830;8.730;2023-06-26T14:56:20;8.13;;;5.05;;
27847;SDS011;15212;48.830;8.730;2023-06-26T14:58:49;9.70;;;5.72;;
27847;SDS011;15212;48.830;8.730;2023-06-26T15:01:20;10.08;;;5.40;;
27847;SDS011;15212;48.830;8.730;2023-06-26T15:03:48;8.10;;;5.45;;
27847;SDS011;15212;48.830;8.730;2023-06-26T15:06:17;9.85;;;6.25;;
27847;SDS011;15212;48.830;8.730;2023-06-26T15:08:45;9.53;;;5.47;;
27847;SDS011;15212;48.830;8.730;2023-06-26T15:11:13;8.03;;;5.28;;
27847;SDS011;15212;48.830;8.730;2023-06-26T15:13:42;8.98;;;5.97;;
27847;SDS011;15212;48.830;8.730;2023-06-26T15:16:10;10.15;;;5.70;;
27847;SDS011;15212;48.830;8.730;2023-06-26T15:18:40;10.23;;;5.95;;
27847;SDS011;15212;48.830;8.730;2023-06-26T15:21:08;8.43;;;5.65;;
27847;SDS011;15212;48.830;8.730;2023-06-26T15:23:36;10.05;;;6.10;;
27847;SDS011;15212;48.830;8.730;2023-06-26T15:26:05;9.08;;;6.28;;
27847;SDS011;15212;48.830;8.730;2023-06-26T15:28:33;9.43;;;6.30;;